createdAt,value
2022-09-26T00:01:54.214Z,100.00
2022-09-26T00:04:35.285Z,100.00
2022-09-26T00:07:02.151Z,100.00
2022-09-26T00:09:29.223Z,100.00
2022-09-26T00:11:56.266Z,100.00
2022-09-26T00:14:27.059Z,100.00
2022-09-26T00:16:54.236Z,100.00
2022-09-26T00:19:21.996Z,100.00
2022-09-26T00:21:49.025Z,100.00
2022-09-26T00:24:36.891Z,100.00
2022-09-26T00:27:17.574Z,100.00
2022-09-26T00:29:44.566Z,100.00
2022-09-26T00:32:11.513Z,100.00
2022-09-26T00:34:39.306Z,100.00
2022-09-26T00:37:06.210Z,100.00
2022-09-26T00:39:33.174Z,100.00
2022-09-26T00:42:00.846Z,100.00
2022-09-26T00:44:56.955Z,100.00
2022-09-26T00:47:38.961Z,100.00
2022-09-26T00:50:17.261Z,100.00
2022-09-26T00:53:12.518Z,100.00
2022-09-26T00:55:46.667Z,100.00
2022-09-26T00:58:17.958Z,100.00
2022-09-26T01:01:05.020Z,100.00
2022-09-26T01:04:05.938Z,100.00
2022-09-26T01:07:09.920Z,100.00
2022-09-26T01:09:51.974Z,100.00
2022-09-26T01:12:21.160Z,100.00
2022-09-26T01:14:51.900Z,100.00
2022-09-26T01:17:24.716Z,100.00
2022-09-26T01:20:23.679Z,100.00
2022-09-26T01:23:29.984Z,100.00
2022-09-26T01:26:44.675Z,100.00
2022-09-26T01:29:22.513Z,100.00
2022-09-26T01:32:43.731Z,100.00
2022-09-26T01:35:13.657Z,100.00
2022-09-26T01:37:59.711Z,100.00
2022-09-26T01:41:09.298Z,100.00
2022-09-26T01:44:10.702Z,100.00
2022-09-26T01:46:53.323Z,100.00
2022-09-26T01:49:36.180Z,100.00
2022-09-26T01:52:15.868Z,100.00
2022-09-26T01:54:55.736Z,100.00
2022-09-26T01:57:47.990Z,100.00
2022-09-26T02:00:43.008Z,100.00
2022-09-26T02:03:44.983Z,100.00
2022-09-26T02:06:37.286Z,100.00
2022-09-26T02:09:10.619Z,100.00
2022-09-26T02:11:41.694Z,100.00
2022-09-26T02:14:27.894Z,100.00
2022-09-26T02:17:01.648Z,100.00
2022-09-26T02:19:33.106Z,100.00
2022-09-26T02:22:19.958Z,100.00
2022-09-26T02:25:23.039Z,100.00
2022-09-26T02:28:21.696Z,100.00
2022-09-26T02:30:50.928Z,100.00
2022-09-26T02:33:18.435Z,100.00
2022-09-26T02:35:54.278Z,100.00
2022-09-26T02:38:23.747Z,100.00
2022-09-26T02:41:11.874Z,100.00
2022-09-26T02:44:06.921Z,100.00
2022-09-26T02:46:58.437Z,100.00
2022-09-26T02:49:46.175Z,100.00
2022-09-26T02:52:44.076Z,100.00
2022-09-26T02:55:32.608Z,100.00
2022-09-26T02:58:18.308Z,100.00
2022-09-26T03:01:17.042Z,100.00
2022-09-26T03:04:28.035Z,100.00
2022-09-26T03:07:14.827Z,100.00
2022-09-26T03:09:43.672Z,100.00
2022-09-26T03:12:12.562Z,100.00
2022-09-26T03:14:42.889Z,100.00
2022-09-26T03:17:10.333Z,100.00
2022-09-26T03:19:47.112Z,100.00
2022-09-26T03:22:16.145Z,100.00
2022-09-26T03:25:03.031Z,100.00
2022-09-26T03:28:08.996Z,100.00
2022-09-26T03:30:51.263Z,100.00
2022-09-26T03:33:25.444Z,100.00
2022-09-26T03:35:53.712Z,100.00
2022-09-26T03:38:21.726Z,100.00
2022-09-26T03:40:58.821Z,100.00
2022-09-26T03:43:46.054Z,100.00
2022-09-26T03:46:15.939Z,100.00
2022-09-26T03:48:43.454Z,100.00
2022-09-26T03:51:13.433Z,100.00
2022-09-26T03:53:42.841Z,100.00
2022-09-26T03:56:34.040Z,100.00
2022-09-26T03:59:14.968Z,100.00
2022-09-26T04:02:02.031Z,100.00
2022-09-26T04:04:46.601Z,100.00
2022-09-26T04:07:15.351Z,100.00
2022-09-26T04:09:42.387Z,100.00
2022-09-26T04:12:09.383Z,100.00
2022-09-26T04:14:40.378Z,100.00
2022-09-26T04:17:08.009Z,100.00
2022-09-26T04:19:40.388Z,100.00
2022-09-26T04:22:08.308Z,100.00
2022-09-26T04:24:35.989Z,100.00
2022-09-26T04:27:23.035Z,100.00
2022-09-26T04:30:17.626Z,100.00
2022-09-26T04:33:03.914Z,100.00
2022-09-26T04:35:33.899Z,100.00
2022-09-26T04:38:01.159Z,100.00
2022-09-26T04:40:28.808Z,100.00
2022-09-26T04:43:06.105Z,100.00
2022-09-26T04:45:33.064Z,100.00
2022-09-26T04:48:02.779Z,100.00
2022-09-26T04:50:44.753Z,100.00
2022-09-26T04:53:11.904Z,100.00
2022-09-26T04:56:00.842Z,100.00
2022-09-26T04:58:51.051Z,100.00
2022-09-26T05:01:54.183Z,100.00
2022-09-26T05:05:06.072Z,100.00
2022-09-26T05:07:46.875Z,100.00
2022-09-26T05:10:14.333Z,100.00
2022-09-26T05:12:51.058Z,100.00
2022-09-26T05:15:38.062Z,100.00
2022-09-26T05:18:19.231Z,100.00
2022-09-26T05:20:48.345Z,100.00
2022-09-26T05:23:40.862Z,100.00
2022-09-26T05:26:28.286Z,100.00
2022-09-26T05:28:56.475Z,100.00
2022-09-26T05:31:29.407Z,100.00
2022-09-26T05:33:59.184Z,100.00
2022-09-26T05:36:27.803Z,100.00
2022-09-26T05:38:54.877Z,100.00
2022-09-26T05:41:22.953Z,100.00
2022-09-26T05:43:51.005Z,100.00
2022-09-26T05:46:17.860Z,100.00
2022-09-26T05:49:10.061Z,100.00
2022-09-26T05:52:11.375Z,100.00
2022-09-26T05:55:12.048Z,100.00
2022-09-26T05:57:58.632Z,100.00
2022-09-26T06:00:57.112Z,100.00
2022-09-26T06:04:01.101Z,100.00
2022-09-26T06:07:03.919Z,100.00
2022-09-26T06:09:31.761Z,100.00
2022-09-26T06:12:11.832Z,100.00
2022-09-26T06:14:38.887Z,100.00
2022-09-26T06:17:05.899Z,100.00
2022-09-26T06:19:32.967Z,100.00
2022-09-26T06:22:00.146Z,100.00
2022-09-26T06:24:28.858Z,100.00
2022-09-26T06:26:59.324Z,100.00
2022-09-26T06:29:26.247Z,100.00
2022-09-26T06:31:53.173Z,100.00
2022-09-26T06:34:45.881Z,100.00
2022-09-26T06:37:31.301Z,100.00
2022-09-26T06:40:00.864Z,100.00
2022-09-26T06:42:27.795Z,100.00
2022-09-26T06:45:13.994Z,100.00
2022-09-26T06:48:03.593Z,100.00
2022-09-26T06:51:10.147Z,100.00
2022-09-26T06:54:11.186Z,100.00
2022-09-26T06:56:51.813Z,100.00
2022-09-26T06:59:18.896Z,100.00
2022-09-26T07:02:13.206Z,100.00
2022-09-26T07:05:21.377Z,100.00
2022-09-26T07:07:53.484Z,100.00
2022-09-26T07:10:30.568Z,100.00
2022-09-26T07:13:06.812Z,100.00
2022-09-26T07:15:54.213Z,100.00
2022-09-26T07:18:52.801Z,100.00
2022-09-26T07:21:23.967Z,100.00
2022-09-26T07:24:34.127Z,100.00
2022-09-26T07:27:14.660Z,100.00
2022-09-26T07:29:42.192Z,100.00
2022-09-26T07:32:09.171Z,100.00
2022-09-26T07:34:45.241Z,100.00
2022-09-26T07:37:15.146Z,100.00
2022-09-26T07:39:42.389Z,100.00
2022-09-26T07:42:10.083Z,100.00
2022-09-26T07:47:42.564Z,100.00
2022-09-26T07:50:49.152Z,100.00
2022-09-26T07:53:41.241Z,100.00
2022-09-26T07:56:26.848Z,100.00
2022-09-26T07:59:03.838Z,100.00
2022-09-26T08:02:04.275Z,100.00
2022-09-26T08:05:01.309Z,100.00
2022-09-26T08:07:42.459Z,100.00
2022-09-26T08:10:23.425Z,100.00
2022-09-26T08:13:08.793Z,100.00
2022-09-26T08:16:06.128Z,100.00
2022-09-26T08:18:37.969Z,100.00
2022-09-26T08:21:06.238Z,100.00
2022-09-26T08:23:34.242Z,100.00
2022-09-26T08:26:21.280Z,100.00
2022-09-26T08:28:51.704Z,100.00
2022-09-26T08:31:19.650Z,100.00
2022-09-26T08:33:47.784Z,100.00
2022-09-26T08:36:35.185Z,100.00
2022-09-26T08:39:33.516Z,100.00
2022-09-26T08:42:36.378Z,100.00
2022-09-26T08:45:55.786Z,100.00
2022-09-26T08:49:10.231Z,100.00
2022-09-26T08:51:45.380Z,100.00
2022-09-26T08:54:19.914Z,100.00
2022-09-26T08:56:50.902Z,100.00
2022-09-26T08:59:46.768Z,100.00
2022-09-26T09:02:47.303Z,100.00
2022-09-26T09:05:52.194Z,100.00
2022-09-26T09:08:46.491Z,100.00
2022-09-26T09:11:59.318Z,100.00
2022-09-26T09:15:23.644Z,100.00
2022-09-26T09:18:30.399Z,100.00
2022-09-26T09:21:12.367Z,100.00
2022-09-26T09:24:07.492Z,100.00
2022-09-26T09:29:56.753Z,100.00
2022-09-26T09:32:51.725Z,100.00
2022-09-26T09:35:46.934Z,100.00
2022-09-26T09:38:49.218Z,100.00
2022-09-26T09:41:47.720Z,100.00
2022-09-26T09:44:36.390Z,100.00
2022-09-26T09:47:29.229Z,100.00
2022-09-26T09:50:31.425Z,100.00
2022-09-26T09:53:32.650Z,100.00
2022-09-26T09:55:59.691Z,100.00
2022-09-26T09:58:45.110Z,100.00
2022-09-26T10:01:40.201Z,100.00
2022-09-26T10:04:53.284Z,100.00
2022-09-26T10:07:33.785Z,100.00
2022-09-26T10:10:37.581Z,100.00
2022-09-26T10:13:45.325Z,100.00
2022-09-26T10:17:25.239Z,100.00
2022-09-26T10:20:35.183Z,100.00
2022-09-26T10:23:03.301Z,99.01
2022-09-26T10:25:32.103Z,99.50
2022-09-26T10:28:01.157Z,98.09
2022-09-26T10:30:48.752Z,91.50
2022-09-26T10:33:29.087Z,98.02
2022-09-26T10:36:11.459Z,94.76
2022-09-26T10:39:16.495Z,91.89
2022-09-26T10:41:47.499Z,99.90
2022-09-26T10:44:23.496Z,100.00
2022-09-26T10:47:08.725Z,93.58
2022-09-26T10:50:07.116Z,90.43
2022-09-26T10:53:14.108Z,92.21
2022-09-26T10:55:46.876Z,85.88
2022-09-26T10:58:18.239Z,86.88
2022-09-26T11:01:07.378Z,91.21
2022-09-26T11:04:00.014Z,88.91
2022-09-26T11:06:55.264Z,88.25
2022-09-26T11:10:15.267Z,90.83
2022-09-26T11:13:19.337Z,89.11
2022-09-26T11:16:08.881Z,83.08
2022-09-26T11:18:47.561Z,90.86
2022-09-26T11:21:41.370Z,88.85
2022-09-26T11:25:11.371Z,91.04
2022-09-26T11:28:54.010Z,91.28
2022-09-26T11:31:47.199Z,89.53
2022-09-26T11:34:31.105Z,89.84
2022-09-26T11:37:11.242Z,94.12
2022-09-26T11:40:13.753Z,95.11
2022-09-26T11:43:00.467Z,89.76
2022-09-26T11:46:05.053Z,83.09
2022-09-26T11:49:45.319Z,83.33
2022-09-26T11:53:04.780Z,90.53
2022-09-26T11:55:51.343Z,90.43
2022-09-26T11:58:59.921Z,83.19
2022-09-26T12:02:04.322Z,88.84
2022-09-26T12:05:16.919Z,81.88
2022-09-26T12:08:08.237Z,88.77
2022-09-26T12:10:50.401Z,86.58
2022-09-26T12:13:47.234Z,93.62
2022-09-26T12:16:22.148Z,87.31
2022-09-26T12:19:16.146Z,85.21
2022-09-26T12:22:33.333Z,87.69
2022-09-26T12:26:02.359Z,86.46
2022-09-26T12:29:28.311Z,88.54
2022-09-26T12:32:46.974Z,89.95
2022-09-26T12:35:18.937Z,85.79
2022-09-26T12:38:08.784Z,83.26
2022-09-26T12:41:02.458Z,89.67
2022-09-26T12:43:44.905Z,87.75
2022-09-26T12:46:56.424Z,88.47
2022-09-26T12:50:04.527Z,85.34
2022-09-26T12:53:32.330Z,89.89
2022-09-26T12:59:17.606Z,85.91
2022-09-26T13:02:21.380Z,86.92
2022-09-26T13:05:15.606Z,87.01
2022-09-26T13:07:57.471Z,83.35
2022-09-26T13:10:59.386Z,85.72
2022-09-26T13:14:09.756Z,86.23
2022-09-26T13:16:50.887Z,82.21
2022-09-26T13:19:35.055Z,85.42
2022-09-26T13:22:41.358Z,86.47
2022-09-26T13:25:26.272Z,84.46
2022-09-26T13:28:05.297Z,87.91
2022-09-26T13:30:36.261Z,87.76
2022-09-26T13:33:41.467Z,87.49
2022-09-26T13:36:44.775Z,88.22
2022-09-26T13:39:48.364Z,86.66
2022-09-26T13:43:03.048Z,86.25
2022-09-26T13:46:07.442Z,86.08
2022-09-26T13:49:20.401Z,86.64
2022-09-26T13:52:49.359Z,84.09
2022-09-26T13:55:30.406Z,83.25
2022-09-26T13:58:03.212Z,81.37
2022-09-26T14:00:30.469Z,82.09
2022-09-26T14:03:15.698Z,85.39
2022-09-26T14:05:43.675Z,85.77
2022-09-26T14:08:57.371Z,82.63
2022-09-26T14:11:43.805Z,85.97
2022-09-26T14:14:18.245Z,82.73
2022-09-26T14:16:47.254Z,84.31
2022-09-26T14:19:39.362Z,84.49
2022-09-26T14:22:32.401Z,82.97
2022-09-26T14:25:45.658Z,84.49
2022-09-26T14:28:33.387Z,82.01
2022-09-26T14:31:24.852Z,83.63
2022-09-26T14:34:25.424Z,83.64
2022-09-26T14:36:55.933Z,83.34
2022-09-26T14:39:53.144Z,85.40
2022-09-26T14:42:43.652Z,84.00
2022-09-26T14:45:31.404Z,84.87
2022-09-26T14:48:49.460Z,84.74
2022-09-26T14:51:54.410Z,84.72
2022-09-26T14:54:55.426Z,82.70
2022-09-26T14:57:56.410Z,84.47
2022-09-26T15:00:43.365Z,84.62
2022-09-26T15:03:33.417Z,84.80
2022-09-26T15:06:14.542Z,84.80
2022-09-26T15:11:53.444Z,84.11
2022-09-26T15:14:40.939Z,83.84
2022-09-26T15:17:16.379Z,82.61
2022-09-26T15:19:50.915Z,84.36
2022-09-26T15:22:41.420Z,84.92
2022-09-26T15:25:46.477Z,86.74
2022-09-26T15:28:27.207Z,84.68
2022-09-26T15:31:24.949Z,85.26
2022-09-26T15:33:54.614Z,84.27
2022-09-26T15:36:43.430Z,84.22
2022-09-26T15:39:33.214Z,85.68
2022-09-26T15:42:31.709Z,83.96
2022-09-26T15:45:56.597Z,83.58
2022-09-26T15:48:50.681Z,85.43
2022-09-26T15:51:46.434Z,84.09
2022-09-26T15:54:47.534Z,87.17
2022-09-26T15:57:48.453Z,87.94
2022-09-26T16:00:35.223Z,88.66
2022-09-26T16:03:26.476Z,90.76
2022-09-26T16:05:54.764Z,88.87
2022-09-26T16:08:29.220Z,89.54
2022-09-26T16:10:59.618Z,89.63
2022-09-26T16:13:36.524Z,89.64
2022-09-26T16:16:15.120Z,88.58
2022-09-26T16:18:53.408Z,86.40
2022-09-26T16:21:44.483Z,87.77
2022-09-26T16:24:46.462Z,87.68
2022-09-26T16:27:33.454Z,90.05
2022-09-26T16:30:04.937Z,89.17
2022-09-26T16:32:32.321Z,90.46
2022-09-26T16:35:17.518Z,90.29
2022-09-26T16:37:44.448Z,90.74
2022-09-26T16:40:18.455Z,91.13
2022-09-26T16:42:46.356Z,92.30
2022-09-26T16:45:33.517Z,92.44
2022-09-26T16:48:56.488Z,92.93
2022-09-26T16:52:37.479Z,93.02
2022-09-26T16:55:39.527Z,93.58
2022-09-26T16:58:40.507Z,93.80
2022-09-26T17:01:40.190Z,94.48
2022-09-26T17:04:32.702Z,95.93
2022-09-26T17:07:15.292Z,96.99
2022-09-26T17:09:44.003Z,97.18
2022-09-26T17:12:18.399Z,98.30
2022-09-26T17:14:49.742Z,98.96
2022-09-26T17:17:37.588Z,100.00
2022-09-26T17:20:38.582Z,100.00
2022-09-26T17:23:41.412Z,100.00
2022-09-26T17:26:23.863Z,100.00
2022-09-26T17:28:53.458Z,100.00
2022-09-26T17:31:20.785Z,100.00
2022-09-26T17:34:08.524Z,100.00
2022-09-26T17:36:49.768Z,100.00
2022-09-26T17:39:22.168Z,100.00
2022-09-26T17:41:50.061Z,100.00
2022-09-26T17:44:19.745Z,100.00
2022-09-26T17:46:52.339Z,100.00
2022-09-26T17:49:51.519Z,100.00
2022-09-26T17:52:33.876Z,100.00
2022-09-26T17:55:06.125Z,100.00
2022-09-26T17:57:38.248Z,100.00
2022-09-26T18:00:11.201Z,100.00
2022-09-26T18:02:43.827Z,100.00
2022-09-26T18:05:38.150Z,100.00
2022-09-26T18:08:13.562Z,100.00
2022-09-26T18:10:46.528Z,100.00
2022-09-26T18:13:15.751Z,100.00
2022-09-26T18:15:42.785Z,100.00
2022-09-26T18:18:34.540Z,100.00
2022-09-26T18:21:35.541Z,100.00
2022-09-26T18:24:39.535Z,100.00
2022-09-26T18:27:20.062Z,100.00
2022-09-26T18:30:07.564Z,100.00
2022-09-26T18:33:02.544Z,100.00
2022-09-26T18:36:03.541Z,100.00
2022-09-26T18:38:35.524Z,100.00
2022-09-26T18:41:25.558Z,100.00
2022-09-26T18:44:10.482Z,100.00
2022-09-26T18:46:37.807Z,100.00
2022-09-26T18:49:06.413Z,100.00
2022-09-26T18:51:33.583Z,100.00
2022-09-26T18:54:01.762Z,100.00
2022-09-26T18:57:06.584Z,100.00
2022-09-26T18:59:47.327Z,100.00
2022-09-26T19:02:27.295Z,100.00
2022-09-26T19:04:56.952Z,100.00
2022-09-26T19:07:24.843Z,100.00
2022-09-26T19:09:52.145Z,100.00
2022-09-26T19:12:19.176Z,100.00
2022-09-26T19:15:06.553Z,100.00
2022-09-26T19:18:07.585Z,100.00
2022-09-26T19:21:08.607Z,100.00
2022-09-26T19:23:49.745Z,100.00
2022-09-26T19:26:45.581Z,100.00
2022-09-26T19:29:41.596Z,100.00
2022-09-26T19:32:21.885Z,100.00
2022-09-26T19:35:05.609Z,100.00
2022-09-26T19:38:06.615Z,100.00
2022-09-26T19:41:07.674Z,100.00
2022-09-26T19:43:48.154Z,100.00
2022-09-26T19:46:40.647Z,100.00
2022-09-26T19:49:23.329Z,100.00
2022-09-26T19:51:50.209Z,100.00
2022-09-26T19:54:37.589Z,100.00
2022-09-26T19:57:20.651Z,100.00
2022-09-26T19:59:48.795Z,100.00
2022-09-26T20:02:18.464Z,100.00
2022-09-26T20:04:45.866Z,100.00
2022-09-26T20:07:16.102Z,100.00
2022-09-26T20:10:04.622Z,100.00
2022-09-26T20:13:05.649Z,100.00
2022-09-26T20:15:47.846Z,100.00
2022-09-26T20:18:21.172Z,100.00
2022-09-26T20:21:10.612Z,100.00
2022-09-26T20:24:12.737Z,100.00
2022-09-26T20:26:53.789Z,100.00
2022-09-26T20:29:20.988Z,100.00
2022-09-26T20:31:48.016Z,100.00
2022-09-26T20:34:17.097Z,100.00
2022-09-26T20:36:51.694Z,100.00
2022-09-26T20:39:25.388Z,100.00
2022-09-26T20:42:12.633Z,100.00
2022-09-26T20:44:53.281Z,100.00
2022-09-26T20:47:43.668Z,100.00
2022-09-26T20:50:24.447Z,100.00
2022-09-26T20:52:51.273Z,100.00
2022-09-26T20:55:43.249Z,100.00
2022-09-26T20:58:24.617Z,100.00
2022-09-26T21:00:53.274Z,100.00
2022-09-26T21:03:25.206Z,100.00
2022-09-26T21:05:52.400Z,100.00
2022-09-26T21:08:26.669Z,100.00
2022-09-26T21:11:13.651Z,100.00
2022-09-26T21:14:14.739Z,100.00
2022-09-26T21:16:55.263Z,100.00
2022-09-26T21:19:24.662Z,100.00
2022-09-26T21:22:24.643Z,100.00
2022-09-26T21:25:30.646Z,100.00
2022-09-26T21:28:28.351Z,100.00
2022-09-26T21:31:19.736Z,100.00
2022-09-26T21:34:00.477Z,100.00
2022-09-26T21:36:35.089Z,100.00
2022-09-26T21:39:02.535Z,100.00
2022-09-26T21:41:29.872Z,100.00
2022-09-26T21:44:03.857Z,100.00
2022-09-26T21:46:50.670Z,100.00
2022-09-26T21:49:51.672Z,100.00
2022-09-26T21:52:40.625Z,100.00
2022-09-26T21:55:12.281Z,100.00
2022-09-26T21:57:43.066Z,100.00
2022-09-26T22:00:12.394Z,100.00
2022-09-26T22:02:41.885Z,100.00
2022-09-26T22:05:10.233Z,100.00
2022-09-26T22:07:37.819Z,100.00
2022-09-26T22:10:06.234Z,100.00
2022-09-26T22:12:34.580Z,100.00
2022-09-26T22:15:21.689Z,100.00
2022-09-26T22:18:02.257Z,100.00
2022-09-26T22:20:49.686Z,100.00
2022-09-26T22:23:51.663Z,100.00
2022-09-26T22:26:41.232Z,100.00
2022-09-26T22:29:08.156Z,100.00
2022-09-26T22:31:35.067Z,100.00
2022-09-26T22:34:02.096Z,100.00
2022-09-26T22:36:29.008Z,100.00
2022-09-26T22:38:55.913Z,100.00
2022-09-26T22:41:42.706Z,100.00
2022-09-26T22:44:43.720Z,100.00
2022-09-26T22:47:44.676Z,100.00
2022-09-26T22:50:25.581Z,100.00
2022-09-26T22:52:52.603Z,100.00
2022-09-26T22:55:19.759Z,100.00
2022-09-26T22:57:51.014Z,100.00
2022-09-26T23:00:17.946Z,100.00
2022-09-26T23:02:45.005Z,100.00
2022-09-26T23:05:31.726Z,100.00
2022-09-26T23:08:12.460Z,100.00
2022-09-26T23:11:04.716Z,100.00
2022-09-26T23:14:06.693Z,100.00
2022-09-26T23:16:47.266Z,100.00
2022-09-26T23:19:15.011Z,100.00
2022-09-26T23:22:02.734Z,100.00
2022-09-26T23:24:43.379Z,100.00
2022-09-26T23:27:10.364Z,100.00
2022-09-26T23:29:37.792Z,100.00
2022-09-26T23:32:24.721Z,100.00
2022-09-26T23:35:06.087Z,100.00
2022-09-26T23:37:33.030Z,100.00
2022-09-26T23:40:00.059Z,100.00
2022-09-26T23:42:27.003Z,100.00
2022-09-26T23:45:13.703Z,100.00
2022-09-26T23:48:14.702Z,100.00
2022-09-26T23:50:58.851Z,100.00
2022-09-26T23:53:26.205Z,100.00
2022-09-26T23:55:53.494Z,100.00
2022-09-26T23:58:20.491Z,100.00
